DABC/CZL METAR and TAF weather

Enter ICAO airport designator
Station Type Date Time Source
DABC METAR 2020/02/25 00:00 UTC NOAA

DABC 250000Z 00000KT CAVOK 05/01 Q1024


Station Type Date Time Source
DABC Decoded METAR 2020/02/25 00:00 UTC NOAA

Constantine, Algeria (DABC) 36-17N 006-37E 694M
Feb 24, 2020 - 07:00 PM EST / 2020.02.25 0000 UTC
Wind: Calm:0
Visibility: greater than 7 mile(s):0
Temperature: 41 F (5 C)
Dew Point: 33 F (1 C)
Relative Humidity: 75%
Pressure (altimeter): 30.24 in. Hg (1024 hPa)
ob: DABC 250000Z 00000KT CAVOK 05/01 Q1024
cycle: 0

Station Type Date Time Source
DABC TAF 2020/02/24 18:40 UTC NOAA

TAF COR DABC 241700Z 2418/2518 23008KT CAVOK
BECMG 2512/2514 34012KT

Example: see airport list